sensor_id;sensor_type;location;lat;lon;timestamp;P1;durP1;ratioP1;P2;durP2;ratioP2
64619;SDS011;51029;51.058;13.826;2022-08-14T00:00:49;14.07;;;12.87;;
64619;SDS011;51029;51.058;13.826;2022-08-14T00:03:22;14.60;;;12.97;;
64619;SDS011;51029;51.058;13.826;2022-08-14T00:05:49;12.97;;;11.70;;
64619;SDS011;51029;51.058;13.826;2022-08-14T00:08:15;14.10;;;12.70;;
64619;SDS011;51029;51.058;13.826;2022-08-14T00:10:41;13.60;;;12.23;;
64619;SDS011;51029;51.058;13.826;2022-08-14T00:13:08;13.27;;;12.07;;
64619;SDS011;51029;51.058;13.826;2022-08-14T00:15:35;13.93;;;12.53;;
64619;SDS011;51029;51.058;13.826;2022-08-14T00:18:02;13.63;;;12.33;;
64619;SDS011;51029;51.058;13.826;2022-08-14T00:20:29;13.77;;;12.47;;
64619;SDS011;51029;51.058;13.826;2022-08-14T00:22:56;13.27;;;11.97;;
64619;SDS011;51029;51.058;13.826;2022-08-14T00:25:22;13.33;;;12.13;;
64619;SDS011;51029;51.058;13.826;2022-08-14T00:27:47;13.73;;;12.50;;
64619;SDS011;51029;51.058;13.826;2022-08-14T00:30:14;14.07;;;12.87;;
64619;SDS011;51029;51.058;13.826;2022-08-14T00:32:40;14.20;;;12.80;;
64619;SDS011;51029;51.058;13.826;2022-08-14T00:35:06;13.50;;;12.20;;
64619;SDS011;51029;51.058;13.826;2022-08-14T00:37:33;13.40;;;12.00;;
64619;SDS011;51029;51.058;13.826;2022-08-14T00:40:00;13.23;;;11.83;;
64619;SDS011;51029;51.058;13.826;2022-08-14T00:42:26;14.17;;;12.50;;
64619;SDS011;51029;51.058;13.826;2022-08-14T00:44:55;12.83;;;11.67;;
64619;SDS011;51029;51.058;13.826;2022-08-14T00:47:21;13.60;;;12.20;;
64619;SDS011;51029;51.058;13.826;2022-08-14T00:49:51;15.50;;;11.70;;
64619;SDS011;51029;51.058;13.826;2022-08-14T00:52:17;12.87;;;11.57;;
64619;SDS011;51029;51.058;13.826;2022-08-14T00:54:44;13.23;;;12.03;;
64619;SDS011;51029;51.058;13.826;2022-08-14T00:57:10;13.13;;;11.93;;
64619;SDS011;51029;51.058;13.826;2022-08-14T00:59:37;13.43;;;12.23;;
64619;SDS011;51029;51.058;13.826;2022-08-14T01:02:04;12.80;;;11.70;;
64619;SDS011;51029;51.058;13.826;2022-08-14T01:04:30;12.87;;;11.67;;
64619;SDS011;51029;51.058;13.826;2022-08-14T01:06:58;13.93;;;12.60;;
64619;SDS011;51029;51.058;13.826;2022-08-14T01:09:24;13.60;;;12.30;;
64619;SDS011;51029;51.058;13.826;2022-08-14T01:11:51;13.50;;;12.30;;
64619;SDS011;51029;51.058;13.826;2022-08-14T01:14:17;13.50;;;12.30;;
64619;SDS011;51029;51.058;13.826;2022-08-14T01:16:44;13.07;;;11.87;;
64619;SDS011;51029;51.058;13.826;2022-08-14T01:19:10;13.67;;;11.27;;
64619;SDS011;51029;51.058;13.826;2022-08-14T01:21:54;12.77;;;11.57;;
64619;SDS011;51029;51.058;13.826;2022-08-14T01:24:21;13.57;;;12.27;;
64619;SDS011;51029;51.058;13.826;2022-08-14T01:26:47;13.27;;;11.97;;
64619;SDS011;51029;51.058;13.826;2022-08-14T01:29:13;12.73;;;11.50;;
64619;SDS011;51029;51.058;13.826;2022-08-14T01:31:40;13.83;;;12.53;;
64619;SDS011;51029;51.058;13.826;2022-08-14T01:34:10;13.03;;;11.90;;
64619;SDS011;51029;51.058;13.826;2022-08-14T01:36:36;13.00;;;11.80;;
64619;SDS011;51029;51.058;13.826;2022-08-14T01:39:35;13.33;;;11.90;;
64619;SDS011;51029;51.058;13.826;2022-08-14T01:41:54;13.03;;;11.93;;
64619;SDS011;51029;51.058;13.826;2022-08-14T01:44:21;14.00;;;12.60;;
64619;SDS011;51029;51.058;13.826;2022-08-14T01:46:48;14.73;;;13.00;;
64619;SDS011;51029;51.058;13.826;2022-08-14T01:49:18;13.43;;;12.03;;
64619;SDS011;51029;51.058;13.826;2022-08-14T01:51:44;13.23;;;12.03;;
64619;SDS011;51029;51.058;13.826;2022-08-14T01:54:13;13.30;;;12.00;;
64619;SDS011;51029;51.058;13.826;2022-08-14T01:56:39;13.53;;;12.30;;
64619;SDS011;51029;51.058;13.826;2022-08-14T01:59:10;12.47;;;11.37;;
64619;SDS011;51029;51.058;13.826;2022-08-14T02:01:50;13.57;;;12.27;;
64619;SDS011;51029;51.058;13.826;2022-08-14T02:04:20;13.63;;;12.23;;
64619;SDS011;51029;51.058;13.826;2022-08-14T02:06:47;12.87;;;11.67;;
64619;SDS011;51029;51.058;13.826;2022-08-14T02:09:15;13.20;;;12.00;;
64619;SDS011;51029;51.058;13.826;2022-08-14T02:11:41;12.73;;;11.63;;
64619;SDS011;51029;51.058;13.826;2022-08-14T02:14:08;12.80;;;11.63;;
64619;SDS011;51029;51.058;13.826;2022-08-14T02:16:35;13.33;;;12.13;;
64619;SDS011;51029;51.058;13.826;2022-08-14T02:19:04;13.30;;;11.90;;
64619;SDS011;51029;51.058;13.826;2022-08-14T02:21:31;12.83;;;11.63;;
64619;SDS011;51029;51.058;13.826;2022-08-14T02:23:58;13.93;;;12.63;;
64619;SDS011;51029;51.058;13.826;2022-08-14T02:26:28;13.87;;;12.10;;
64619;SDS011;51029;51.058;13.826;2022-08-14T02:28:56;14.03;;;12.73;;
64619;SDS011;51029;51.058;13.826;2022-08-14T02:31:26;13.10;;;11.90;;
64619;SDS011;51029;51.058;13.826;2022-08-14T02:33:53;13.40;;;12.10;;
64619;SDS011;51029;51.058;13.826;2022-08-14T02:36:20;13.40;;;12.17;;
64619;SDS011;51029;51.058;13.826;2022-08-14T02:38:46;12.60;;;11.40;;
64619;SDS011;51029;51.058;13.826;2022-08-14T02:41:13;14.93;;;13.43;;
64619;SDS011;51029;51.058;13.826;2022-08-14T02:43:39;13.40;;;12.10;;
64619;SDS011;51029;51.058;13.826;2022-08-14T02:46:06;13.73;;;12.43;;
64619;SDS011;51029;51.058;13.826;2022-08-14T02:48:39;13.10;;;11.83;;
64619;SDS011;51029;51.058;13.826;2022-08-14T02:51:08;12.90;;;11.73;;
64619;SDS011;51029;51.058;13.826;2022-08-14T02:53:34;13.17;;;11.93;;
64619;SDS011;51029;51.058;13.826;2022-08-14T02:56:03;13.57;;;12.17;;
64619;SDS011;51029;51.058;13.826;2022-08-14T02:58:29;13.40;;;12.07;;
64619;SDS011;51029;51.058;13.826;2022-08-14T03:00:55;13.60;;;12.37;;
64619;SDS011;51029;51.058;13.826;2022-08-14T03:03:22;13.87;;;12.67;;
64619;SDS011;51029;51.058;13.826;2022-08-14T03:05:49;13.13;;;11.93;;
64619;SDS011;51029;51.058;13.826;2022-08-14T03:08:16;13.13;;;11.93;;
64619;SDS011;51029;51.058;13.826;2022-08-14T03:10:43;14.00;;;12.70;;
64619;SDS011;51029;51.058;13.826;2022-08-14T03:13:10;12.77;;;11.57;;
64619;SDS011;51029;51.058;13.826;2022-08-14T03:15:36;13.17;;;11.97;;
64619;SDS011;51029;51.058;13.826;2022-08-14T03:18:15;13.87;;;12.27;;
64619;SDS011;51029;51.058;13.826;2022-08-14T03:20:41;12.77;;;11.57;;
64619;SDS011;51029;51.058;13.826;2022-08-14T03:23:07;13.47;;;12.17;;
64619;SDS011;51029;51.058;13.826;2022-08-14T03:25:33;13.00;;;11.80;;
64619;SDS011;51029;51.058;13.826;2022-08-14T03:28:03;13.17;;;12.03;;
64619;SDS011;51029;51.058;13.826;2022-08-14T03:30:30;13.20;;;11.97;;
64619;SDS011;51029;51.058;13.826;2022-08-14T03:32:57;13.10;;;11.90;;
64619;SDS011;51029;51.058;13.826;2022-08-14T03:35:23;13.67;;;12.47;;
64619;SDS011;51029;51.058;13.826;2022-08-14T03:37:49;12.70;;;11.40;;
64619;SDS011;51029;51.058;13.826;2022-08-14T03:40:19;13.27;;;12.07;;
64619;SDS011;51029;51.058;13.826;2022-08-14T03:42:45;13.20;;;12.00;;
64619;SDS011;51029;51.058;13.826;2022-08-14T03:45:11;13.47;;;12.17;;
64619;SDS011;51029;51.058;13.826;2022-08-14T03:47:38;13.53;;;12.13;;
64619;SDS011;51029;51.058;13.826;2022-08-14T03:50:05;13.57;;;12.27;;
64619;SDS011;51029;51.058;13.826;2022-08-14T03:52:34;13.03;;;11.83;;
64619;SDS011;51029;51.058;13.826;2022-08-14T03:55:00;13.60;;;12.30;;
64619;SDS011;51029;51.058;13.826;2022-08-14T03:57:27;13.33;;;11.93;;
64619;SDS011;51029;51.058;13.826;2022-08-14T03:59:56;13.00;;;11.80;;
64619;SDS011;51029;51.058;13.826;2022-08-14T04:02:22;12.90;;;11.70;;
64619;SDS011;51029;51.058;13.826;2022-08-14T04:04:48;12.93;;;11.47;;
64619;SDS011;51029;51.058;13.826;2022-08-14T04:07:14;12.37;;;11.13;;
64619;SDS011;51029;51.058;13.826;2022-08-14T04:09:41;12.80;;;11.43;;
64619;SDS011;51029;51.058;13.826;2022-08-14T04:12:07;12.60;;;11.27;;
64619;SDS011;51029;51.058;13.826;2022-08-14T04:14:32;12.73;;;11.60;;
64619;SDS011;51029;51.058;13.826;2022-08-14T04:16:58;12.83;;;11.60;;
64619;SDS011;51029;51.058;13.826;2022-08-14T04:19:24;13.37;;;11.97;;
64619;SDS011;51029;51.058;13.826;2022-08-14T04:21:50;12.33;;;11.13;;
64619;SDS011;51029;51.058;13.826;2022-08-14T04:24:16;13.30;;;12.00;;
64619;SDS011;51029;51.058;13.826;2022-08-14T04:26:42;13.80;;;12.40;;
64619;SDS011;51029;51.058;13.826;2022-08-14T04:29:12;13.50;;;12.30;;
64619;SDS011;51029;51.058;13.826;2022-08-14T04:31:38;12.70;;;11.60;;
64619;SDS011;51029;51.058;13.826;2022-08-14T04:34:04;13.60;;;12.33;;
64619;SDS011;51029;51.058;13.826;2022-08-14T04:36:31;12.93;;;11.63;;
64619;SDS011;51029;51.058;13.826;2022-08-14T04:39:17;12.87;;;11.63;;
64619;SDS011;51029;51.058;13.826;2022-08-14T04:42:01;12.40;;;11.17;;
64619;SDS011;51029;51.058;13.826;2022-08-14T04:44:46;13.70;;;12.40;;
64619;SDS011;51029;51.058;13.826;2022-08-14T04:47:12;13.60;;;12.30;;
64619;SDS011;51029;51.058;13.826;2022-08-14T04:49:57;12.57;;;11.47;;
64619;SDS011;51029;51.058;13.826;2022-08-14T04:52:23;13.47;;;12.27;;
64619;SDS011;51029;51.058;13.826;2022-08-14T04:54:49;12.17;;;11.03;;
64619;SDS011;51029;51.058;13.826;2022-08-14T04:57:15;12.67;;;11.57;;
64619;SDS011;51029;51.058;13.826;2022-08-14T04:59:41;13.23;;;11.90;;
64619;SDS011;51029;51.058;13.826;2022-08-14T05:02:08;12.43;;;11.33;;
64619;SDS011;51029;51.058;13.826;2022-08-14T05:04:34;13.03;;;11.73;;
64619;SDS011;51029;51.058;13.826;2022-08-14T05:07:00;13.33;;;12.03;;
64619;SDS011;51029;51.058;13.826;2022-08-14T05:09:26;13.10;;;11.80;;
64619;SDS011;51029;51.058;13.826;2022-08-14T05:11:52;12.83;;;11.73;;
64619;SDS011;51029;51.058;13.826;2022-08-14T05:14:18;12.90;;;11.60;;
64619;SDS011;51029;51.058;13.826;2022-08-14T05:16:46;13.40;;;12.17;;
64619;SDS011;51029;51.058;13.826;2022-08-14T05:19:13;14.50;;;12.40;;
64619;SDS011;51029;51.058;13.826;2022-08-14T05:21:39;12.33;;;11.23;;
64619;SDS011;51029;51.058;13.826;2022-08-14T05:24:06;12.90;;;11.63;;
64619;SDS011;51029;51.058;13.826;2022-08-14T05:26:33;12.80;;;11.70;;
64619;SDS011;51029;51.058;13.826;2022-08-14T05:28:59;13.40;;;12.20;;
64619;SDS011;51029;51.058;13.826;2022-08-14T05:31:24;13.50;;;12.10;;
64619;SDS011;51029;51.058;13.826;2022-08-14T05:33:50;14.47;;;13.17;;
64619;SDS011;51029;51.058;13.826;2022-08-14T05:36:17;16.57;;;15.07;;
64619;SDS011;51029;51.058;13.826;2022-08-14T05:38:44;16.80;;;15.20;;
64619;SDS011;51029;51.058;13.826;2022-08-14T05:41:12;16.33;;;14.73;;
64619;SDS011;51029;51.058;13.826;2022-08-14T05:43:39;16.97;;;15.43;;
64619;SDS011;51029;51.058;13.826;2022-08-14T05:46:06;17.47;;;15.97;;
64619;SDS011;51029;51.058;13.826;2022-08-14T05:48:32;16.63;;;15.03;;
64619;SDS011;51029;51.058;13.826;2022-08-14T05:50:58;16.43;;;15.00;;
64619;SDS011;51029;51.058;13.826;2022-08-14T05:53:25;16.03;;;14.63;;
64619;SDS011;51029;51.058;13.826;2022-08-14T05:55:51;16.73;;;15.23;;
64619;SDS011;51029;51.058;13.826;2022-08-14T05:58:19;16.87;;;15.37;;
64619;SDS011;51029;51.058;13.826;2022-08-14T06:00:45;17.50;;;15.80;;
64619;SDS011;51029;51.058;13.826;2022-08-14T06:03:12;16.40;;;14.93;;
64619;SDS011;51029;51.058;13.826;2022-08-14T06:05:40;17.03;;;15.43;;
64619;SDS011;51029;51.058;13.826;2022-08-14T06:08:13;16.00;;;14.50;;
64619;SDS011;51029;51.058;13.826;2022-08-14T06:10:40;16.53;;;15.03;;
64619;SDS011;51029;51.058;13.826;2022-08-14T06:13:06;16.63;;;15.13;;
64619;SDS011;51029;51.058;13.826;2022-08-14T06:15:32;16.47;;;14.87;;
64619;SDS011;51029;51.058;13.826;2022-08-14T06:17:58;16.67;;;15.17;;
64619;SDS011;51029;51.058;13.826;2022-08-14T06:20:25;15.67;;;14.27;;
64619;SDS011;51029;51.058;13.826;2022-08-14T06:22:51;16.53;;;15.03;;
64619;SDS011;51029;51.058;13.826;2022-08-14T06:25:17;16.97;;;15.37;;
64619;SDS011;51029;51.058;13.826;2022-08-14T06:27:44;15.60;;;14.23;;
64619;SDS011;51029;51.058;13.826;2022-08-14T06:30:12;16.37;;;14.80;;
64619;SDS011;51029;51.058;13.826;2022-08-14T06:32:38;15.83;;;14.43;;
64619;SDS011;51029;51.058;13.826;2022-08-14T06:35:04;16.43;;;14.93;;
64619;SDS011;51029;51.058;13.826;2022-08-14T06:38:04;16.73;;;15.03;;
64619;SDS011;51029;51.058;13.826;2022-08-14T06:40:26;16.30;;;14.90;;
64619;SDS011;51029;51.058;13.826;2022-08-14T06:42:52;16.20;;;14.80;;
64619;SDS011;51029;51.058;13.826;2022-08-14T06:45:18;17.13;;;15.63;;
64619;SDS011;51029;51.058;13.826;2022-08-14T06:47:45;16.20;;;14.80;;
64619;SDS011;51029;51.058;13.826;2022-08-14T06:50:15;16.90;;;15.13;;
64619;SDS011;51029;51.058;13.826;2022-08-14T06:52:41;16.10;;;14.70;;
64619;SDS011;51029;51.058;13.826;2022-08-14T06:55:08;16.03;;;14.43;;
64619;SDS011;51029;51.058;13.826;2022-08-14T06:57:35;16.40;;;15.00;;
64619;SDS011;51029;51.058;13.826;2022-08-14T07:00:03;15.77;;;14.27;;
64619;SDS011;51029;51.058;13.826;2022-08-14T07:02:29;15.97;;;14.47;;
64619;SDS011;51029;51.058;13.826;2022-08-14T07:05:14;15.57;;;14.17;;
64619;SDS011;51029;51.058;13.826;2022-08-14T07:07:59;15.70;;;14.17;;
64619;SDS011;51029;51.058;13.826;2022-08-14T07:10:25;15.50;;;14.10;;
64619;SDS011;51029;51.058;13.826;2022-08-14T07:12:51;14.83;;;13.43;;
64619;SDS011;51029;51.058;13.826;2022-08-14T07:15:17;15.53;;;14.13;;
64619;SDS011;51029;51.058;13.826;2022-08-14T07:17:46;16.03;;;14.63;;
64619;SDS011;51029;51.058;13.826;2022-08-14T07:20:13;15.13;;;13.63;;
64619;SDS011;51029;51.058;13.826;2022-08-14T07:22:41;15.00;;;13.63;;
64619;SDS011;51029;51.058;13.826;2022-08-14T07:25:07;15.57;;;14.07;;
64619;SDS011;51029;51.058;13.826;2022-08-14T07:27:33;15.60;;;14.10;;
64619;SDS011;51029;51.058;13.826;2022-08-14T07:30:01;14.50;;;13.23;;
64619;SDS011;51029;51.058;13.826;2022-08-14T07:32:27;15.13;;;13.80;;
64619;SDS011;51029;51.058;13.826;2022-08-14T07:34:53;16.33;;;14.80;;
64619;SDS011;51029;51.058;13.826;2022-08-14T07:37:19;15.23;;;13.83;;
64619;SDS011;51029;51.058;13.826;2022-08-14T07:39:45;15.80;;;14.37;;
64619;SDS011;51029;51.058;13.826;2022-08-14T07:42:11;15.60;;;14.13;;
64619;SDS011;51029;51.058;13.826;2022-08-14T07:44:37;15.37;;;13.87;;
64619;SDS011;51029;51.058;13.826;2022-08-14T07:47:03;15.87;;;14.20;;
64619;SDS011;51029;51.058;13.826;2022-08-14T07:49:29;15.00;;;13.63;;
64619;SDS011;51029;51.058;13.826;2022-08-14T07:51:56;15.33;;;13.83;;
64619;SDS011;51029;51.058;13.826;2022-08-14T07:54:23;15.17;;;13.87;;
64619;SDS011;51029;51.058;13.826;2022-08-14T07:56:49;15.50;;;14.10;;
64619;SDS011;51029;51.058;13.826;2022-08-14T07:59:15;15.23;;;13.97;;
64619;SDS011;51029;51.058;13.826;2022-08-14T08:01:42;15.83;;;14.17;;
64619;SDS011;51029;51.058;13.826;2022-08-14T08:04:08;14.77;;;13.57;;
64619;SDS011;51029;51.058;13.826;2022-08-14T08:06:35;15.50;;;14.00;;
64619;SDS011;51029;51.058;13.826;2022-08-14T08:09:02;14.57;;;13.37;;
64619;SDS011;51029;51.058;13.826;2022-08-14T08:11:32;14.13;;;12.83;;
64619;SDS011;51029;51.058;13.826;2022-08-14T08:13:58;14.07;;;12.83;;
64619;SDS011;51029;51.058;13.826;2022-08-14T08:16:25;14.20;;;12.70;;
64619;SDS011;51029;51.058;13.826;2022-08-14T08:18:52;13.43;;;12.33;;
64619;SDS011;51029;51.058;13.826;2022-08-14T08:21:18;12.73;;;11.63;;
64619;SDS011;51029;51.058;13.826;2022-08-14T08:23:45;13.87;;;12.60;;
64619;SDS011;51029;51.058;13.826;2022-08-14T08:26:11;13.13;;;11.93;;
64619;SDS011;51029;51.058;13.826;2022-08-14T08:28:38;14.33;;;13.03;;
64619;SDS011;51029;51.058;13.826;2022-08-14T08:31:04;12.53;;;11.53;;
64619;SDS011;51029;51.058;13.826;2022-08-14T08:33:32;13.60;;;12.37;;
64619;SDS011;51029;51.058;13.826;2022-08-14T08:36:02;12.93;;;11.83;;
64619;SDS011;51029;51.058;13.826;2022-08-14T08:38:30;13.93;;;12.50;;
64619;SDS011;51029;51.058;13.826;2022-08-14T08:40:56;12.27;;;11.23;;
64619;SDS011;51029;51.058;13.826;2022-08-14T08:43:24;12.67;;;11.57;;
64619;SDS011;51029;51.058;13.826;2022-08-14T08:48:29;11.60;;;10.60;;
64619;SDS011;51029;51.058;13.826;2022-08-14T08:50:59;12.03;;;11.03;;
64619;SDS011;51029;51.058;13.826;2022-08-14T08:53:29;13.03;;;11.93;;
64619;SDS011;51029;51.058;13.826;2022-08-14T08:55:56;11.10;;;10.20;;
64619;SDS011;51029;51.058;13.826;2022-08-14T08:58:22;11.73;;;10.63;;
64619;SDS011;51029;51.058;13.826;2022-08-14T09:00:49;12.53;;;11.23;;
64619;SDS011;51029;51.058;13.826;2022-08-14T09:03:17;12.10;;;11.00;;
64619;SDS011;51029;51.058;13.826;2022-08-14T09:05:49;12.20;;;10.43;;
64619;SDS011;51029;51.058;13.826;2022-08-14T09:08:25;8.67;;;7.90;;
64619;SDS011;51029;51.058;13.826;2022-08-14T09:10:53;7.10;;;6.50;;
64619;SDS011;51029;51.058;13.826;2022-08-14T09:13:19;6.57;;;5.63;;
64619;SDS011;51029;51.058;13.826;2022-08-14T09:15:47;6.60;;;6.00;;
64619;SDS011;51029;51.058;13.826;2022-08-14T09:18:14;6.83;;;6.23;;
64619;SDS011;51029;51.058;13.826;2022-08-14T09:20:40;6.50;;;5.80;;
64619;SDS011;51029;51.058;13.826;2022-08-14T09:23:07;7.30;;;5.90;;
64619;SDS011;51029;51.058;13.826;2022-08-14T09:25:34;6.90;;;6.20;;
64619;SDS011;51029;51.058;13.826;2022-08-14T09:28:01;6.97;;;6.27;;
64619;SDS011;51029;51.058;13.826;2022-08-14T09:30:27;6.33;;;5.83;;
64619;SDS011;51029;51.058;13.826;2022-08-14T09:37:59;6.87;;;6.17;;
64619;SDS011;51029;51.058;13.826;2022-08-14T09:40:41;6.20;;;5.55;;
64619;SDS011;51029;51.058;13.826;2022-08-14T09:43:58;6.05;;;5.50;;
64619;SDS011;51029;51.058;13.826;2022-08-14T09:45:59;7.38;;;6.00;;
64619;SDS011;51029;51.058;13.826;2022-08-14T09:48:25;6.80;;;5.50;;
64619;SDS011;51029;51.058;13.826;2022-08-14T09:50:53;7.68;;;6.88;;
64619;SDS011;51029;51.058;13.826;2022-08-14T09:56:00;6.40;;;5.72;;
64619;SDS011;51029;51.058;13.826;2022-08-14T09:58:35;6.20;;;5.70;;
64619;SDS011;51029;51.058;13.826;2022-08-14T10:01:07;6.45;;;5.85;;
64619;SDS011;51029;51.058;13.826;2022-08-14T10:03:34;7.13;;;5.50;;
64619;SDS011;51029;51.058;13.826;2022-08-14T10:06:07;5.78;;;5.30;;
64619;SDS011;51029;51.058;13.826;2022-08-14T10:08:44;6.25;;;5.65;;
64619;SDS011;51029;51.058;13.826;2022-08-14T10:11:12;6.47;;;5.88;;
64619;SDS011;51029;51.058;13.826;2022-08-14T10:13:41;7.32;;;5.43;;
64619;SDS011;51029;51.058;13.826;2022-08-14T10:16:07;6.15;;;5.55;;
64619;SDS011;51029;51.058;13.826;2022-08-14T10:18:33;5.70;;;5.18;;
64619;SDS011;51029;51.058;13.826;2022-08-14T10:20:59;7.15;;;6.28;;
64619;SDS011;51029;51.058;13.826;2022-08-14T10:23:27;5.78;;;5.18;;
64619;SDS011;51029;51.058;13.826;2022-08-14T10:25:57;6.13;;;5.53;;
64619;SDS011;51029;51.058;13.826;2022-08-14T10:28:36;5.40;;;4.82;;
64619;SDS011;51029;51.058;13.826;2022-08-14T10:31:02;5.35;;;4.90;;
64619;SDS011;51029;51.058;13.826;2022-08-14T10:33:30;5.25;;;4.70;;
64619;SDS011;51029;51.058;13.826;2022-08-14T10:35:56;8.05;;;4.75;;
64619;SDS011;51029;51.058;13.826;2022-08-14T10:38:27;5.22;;;4.72;;
64619;SDS011;51029;51.058;13.826;2022-08-14T10:40:53;4.82;;;4.43;;
64619;SDS011;51029;51.058;13.826;2022-08-14T10:43:20;4.93;;;4.20;;
64619;SDS011;51029;51.058;13.826;2022-08-14T10:45:53;5.13;;;4.50;;
64619;SDS011;51029;51.058;13.826;2022-08-14T10:48:20;4.47;;;3.72;;
64619;SDS011;51029;51.058;13.826;2022-08-14T10:50:46;5.20;;;4.10;;
64619;SDS011;51029;51.058;13.826;2022-08-14T10:53:25;4.80;;;4.03;;
64619;SDS011;51029;51.058;13.826;2022-08-14T10:55:56;7.22;;;5.68;;
64619;SDS011;51029;51.058;13.826;2022-08-14T10:58:26;6.35;;;4.47;;
64619;SDS011;51029;51.058;13.826;2022-08-14T11:00:54;4.30;;;4.00;;
64619;SDS011;51029;51.058;13.826;2022-08-14T11:03:21;6.32;;;3.72;;
64619;SDS011;51029;51.058;13.826;2022-08-14T11:05:49;3.80;;;3.50;;
64619;SDS011;51029;51.058;13.826;2022-08-14T11:08:16;6.07;;;3.00;;
64619;SDS011;51029;51.058;13.826;2022-08-14T11:10:54;5.55;;;3.22;;
64619;SDS011;51029;51.058;13.826;2022-08-14T11:13:21;5.03;;;3.00;;
64619;SDS011;51029;51.058;13.826;2022-08-14T11:15:47;5.75;;;4.65;;
64619;SDS011;51029;51.058;13.826;2022-08-14T11:18:14;4.20;;;2.70;;
64619;SDS011;51029;51.058;13.826;2022-08-14T11:20:44;4.22;;;2.65;;
64619;SDS011;51029;51.058;13.826;2022-08-14T11:23:12;2.75;;;2.40;;
64619;SDS011;51029;51.058;13.826;2022-08-14T11:25:40;3.22;;;3.00;;
64619;SDS011;51029;51.058;13.826;2022-08-14T11:28:09;5.32;;;3.03;;
64619;SDS011;51029;51.058;13.826;2022-08-14T11:30:36;4.20;;;3.10;;
64619;SDS011;51029;51.058;13.826;2022-08-14T11:33:05;4.28;;;2.67;;
64619;SDS011;51029;51.058;13.826;2022-08-14T11:35:31;3.45;;;2.90;;
64619;SDS011;51029;51.058;13.826;2022-08-14T11:37:59;4.30;;;3.20;;
64619;SDS011;51029;51.058;13.826;2022-08-14T11:40:25;5.00;;;3.63;;
64619;SDS011;51029;51.058;13.826;2022-08-14T11:42:52;5.57;;;3.33;;
64619;SDS011;51029;51.058;13.826;2022-08-14T11:45:20;4.47;;;3.22;;
64619;SDS011;51029;51.058;13.826;2022-08-14T11:47:47;5.10;;;3.80;;
64619;SDS011;51029;51.058;13.826;2022-08-14T11:52:46;4.82;;;4.43;;
64619;SDS011;51029;51.058;13.826;2022-08-14T11:55:13;6.20;;;4.57;;
64619;SDS011;51029;51.058;13.826;2022-08-14T11:57:40;6.28;;;4.53;;
64619;SDS011;51029;51.058;13.826;2022-08-14T12:00:11;5.70;;;5.20;;
64619;SDS011;51029;51.058;13.826;2022-08-14T12:02:48;5.65;;;5.22;;
64619;SDS011;51029;51.058;13.826;2022-08-14T12:05:14;6.13;;;5.30;;
64619;SDS011;51029;51.058;13.826;2022-08-14T12:07:47;5.55;;;5.00;;
64619;SDS011;51029;51.058;13.826;2022-08-14T12:10:13;10.13;;;5.90;;
64619;SDS011;51029;51.058;13.826;2022-08-14T12:12:41;6.18;;;5.50;;
64619;SDS011;51029;51.058;13.826;2022-08-14T12:15:07;6.32;;;5.80;;
64619;SDS011;51029;51.058;13.826;2022-08-14T12:17:47;6.07;;;5.45;;
64619;SDS011;51029;51.058;13.826;2022-08-14T12:20:13;6.63;;;5.47;;
64619;SDS011;51029;51.058;13.826;2022-08-14T12:22:40;5.65;;;5.25;;
64619;SDS011;51029;51.058;13.826;2022-08-14T12:25:08;5.50;;;5.00;;
64619;SDS011;51029;51.058;13.826;2022-08-14T12:27:35;5.35;;;4.78;;
64619;SDS011;51029;51.058;13.826;2022-08-14T12:30:01;5.30;;;4.80;;
64619;SDS011;51029;51.058;13.826;2022-08-14T12:32:37;5.55;;;5.05;;
64619;SDS011;51029;51.058;13.826;2022-08-14T12:35:03;5.75;;;5.20;;
64619;SDS011;51029;51.058;13.826;2022-08-14T12:37:29;5.75;;;5.20;;
64619;SDS011;51029;51.058;13.826;2022-08-14T12:40:06;5.97;;;5.47;;
64619;SDS011;51029;51.058;13.826;2022-08-14T12:42:36;5.82;;;5.20;;
64619;SDS011;51029;51.058;13.826;2022-08-14T12:45:02;6.38;;;5.53;;
64619;SDS011;51029;51.058;13.826;2022-08-14T12:47:28;7.10;;;5.97;;
64619;SDS011;51029;51.058;13.826;2022-08-14T12:49:55;6.78;;;6.18;;
64619;SDS011;51029;51.058;13.826;2022-08-14T12:52:34;5.85;;;5.45;;
64619;SDS011;51029;51.058;13.826;2022-08-14T12:55:05;6.50;;;5.90;;
64619;SDS011;51029;51.058;13.826;2022-08-14T12:57:41;7.13;;;6.00;;
64619;SDS011;51029;51.058;13.826;2022-08-14T13:00:15;6.38;;;5.78;;
64619;SDS011;51029;51.058;13.826;2022-08-14T13:02:43;6.95;;;6.32;;
64619;SDS011;51029;51.058;13.826;2022-08-14T13:05:11;7.53;;;6.47;;
64619;SDS011;51029;51.058;13.826;2022-08-14T13:07:37;7.10;;;6.35;;
64619;SDS011;51029;51.058;13.826;2022-08-14T13:10:08;6.32;;;5.65;;
64619;SDS011;51029;51.058;13.826;2022-08-14T13:12:37;7.82;;;5.68;;
64619;SDS011;51029;51.058;13.826;2022-08-14T13:15:04;5.93;;;5.43;;
64619;SDS011;51029;51.058;13.826;2022-08-14T13:17:31;8.52;;;5.53;;
64619;SDS011;51029;51.058;13.826;2022-08-14T13:20:01;5.65;;;5.03;;
64619;SDS011;51029;51.058;13.826;2022-08-14T13:22:27;5.43;;;4.78;;
64619;SDS011;51029;51.058;13.826;2022-08-14T13:24:53;4.95;;;4.50;;
64619;SDS011;51029;51.058;13.826;2022-08-14T13:27:21;6.30;;;4.32;;
64619;SDS011;51029;51.058;13.826;2022-08-14T13:29:48;10.07;;;9.25;;
64619;SDS011;51029;51.058;13.826;2022-08-14T13:32:16;5.10;;;4.68;;
64619;SDS011;51029;51.058;13.826;2022-08-14T13:34:42;5.03;;;3.47;;
64619;SDS011;51029;51.058;13.826;2022-08-14T13:37:09;4.03;;;3.63;;
64619;SDS011;51029;51.058;13.826;2022-08-14T13:39:35;5.10;;;3.83;;
64619;SDS011;51029;51.058;13.826;2022-08-14T13:42:02;4.78;;;3.60;;
64619;SDS011;51029;51.058;13.826;2022-08-14T13:44:29;5.72;;;3.58;;
64619;SDS011;51029;51.058;13.826;2022-08-14T13:47:00;4.05;;;3.15;;
64619;SDS011;51029;51.058;13.826;2022-08-14T13:49:30;5.78;;;3.63;;
64619;SDS011;51029;51.058;13.826;2022-08-14T13:51:56;5.03;;;3.35;;
64619;SDS011;51029;51.058;13.826;2022-08-14T13:54:23;5.80;;;3.30;;
64619;SDS011;51029;51.058;13.826;2022-08-14T13:56:51;3.30;;;3.00;;
64619;SDS011;51029;51.058;13.826;2022-08-14T13:59:18;4.47;;;3.13;;
64619;SDS011;51029;51.058;13.826;2022-08-14T14:01:44;4.22;;;3.33;;
64619;SDS011;51029;51.058;13.826;2022-08-14T14:04:14;3.60;;;3.30;;
64619;SDS011;51029;51.058;13.826;2022-08-14T14:06:42;3.97;;;3.63;;
64619;SDS011;51029;51.058;13.826;2022-08-14T14:09:08;5.53;;;4.07;;
64619;SDS011;51029;51.058;13.826;2022-08-14T14:11:35;5.25;;;4.20;;
64619;SDS011;51029;51.058;13.826;2022-08-14T14:14:01;4.97;;;4.57;;
64619;SDS011;51029;51.058;13.826;2022-08-14T14:16:27;6.38;;;4.53;;
64619;SDS011;51029;51.058;13.826;2022-08-14T14:18:54;7.32;;;5.13;;
64619;SDS011;51029;51.058;13.826;2022-08-14T14:21:24;8.98;;;8.07;;
64619;SDS011;51029;51.058;13.826;2022-08-14T14:23:50;6.95;;;5.10;;
64619;SDS011;51029;51.058;13.826;2022-08-14T14:26:17;5.80;;;5.28;;
64619;SDS011;51029;51.058;13.826;2022-08-14T14:28:46;5.68;;;5.15;;
64619;SDS011;51029;51.058;13.826;2022-08-14T14:31:14;5.70;;;5.10;;
64619;SDS011;51029;51.058;13.826;2022-08-14T14:33:42;7.32;;;5.68;;
64619;SDS011;51029;51.058;13.826;2022-08-14T14:36:12;5.85;;;5.30;;